Time;durP1;ratioP1;P1;durP2;ratioP2;P2;SDS_P1;SDS_P2;PMS_P1;PMS_P2;Temp;Humidity;BMP_temperature;BMP_pressure;BME280_temperature;BME280_humidity;BME280_pressure;Samples;Min_cycle;Max_cycle;Signal;HPM_P1;HPM_P2
2021/01/07 00:01:02;;;;;;;3.45;2.25;;;1.60;99.90;;;;;;5052936;28;20291;-50
2021/01/07 00:03:38;;;;;;;7.03;4.03;;;1.60;99.90;;;;;;5053331;28;20212;-48
2021/01/07 00:06:07;;;;;;;5.63;3.30;;;1.60;99.90;;;;;;5054032;28;20634;-49
2021/01/07 00:08:35;;;;;;;2.60;2.15;;;1.70;99.90;;;;;;5053372;28;20273;-52
2021/01/07 00:11:03;;;;;;;3.90;2.92;;;1.70;99.90;;;;;;5053184;28;20212;-51
2021/01/07 00:13:31;;;;;;;5.40;3.30;;;1.80;99.90;;;;;;5053540;28;20177;-54
2021/01/07 00:15:58;;;;;;;3.10;1.98;;;1.80;99.90;;;;;;5052026;28;20641;-54
2021/01/07 00:18:26;;;;;;;3.70;3.25;;;1.80;99.90;;;;;;5053016;28;20223;-53
2021/01/07 00:20:53;;;;;;;7.20;4.10;;;1.80;99.90;;;;;;5053009;28;20201;-52
2021/01/07 00:23:20;;;;;;;4.47;3.30;;;1.70;99.90;;;;;;5053170;28;20271;-51
2021/01/07 00:25:49;;;;;;;5.82;5.00;;;1.70;99.90;;;;;;5053261;28;20177;-50
2021/01/07 00:28:18;;;;;;;5.40;4.40;;;1.70;99.90;;;;;;5053006;28;20197;-52
2021/01/07 00:30:47;;;;;;;3.92;3.17;;;1.60;99.90;;;;;;5052854;28;20216;-52
2021/01/07 00:33:16;;;;;;;4.72;3.13;;;1.60;99.90;;;;;;5053121;28;20177;-52
2021/01/07 00:35:44;;;;;;;5.85;3.25;;;1.70;99.90;;;;;;5053034;28;20193;-52
2021/01/07 00:38:11;;;;;;;4.72;3.30;;;1.70;99.90;;;;;;5054012;28;20193;-53
2021/01/07 00:40:38;;;;;;;2.97;2.03;;;1.70;99.90;;;;;;5072174;28;20208;-50
2021/01/07 00:43:06;;;;;;;3.92;3.35;;;1.70;99.90;;;;;;5072475;28;20180;-54
2021/01/07 00:45:33;;;;;;;3.42;2.35;;;1.60;99.90;;;;;;5072554;28;20194;-53
2021/01/07 00:48:01;;;;;;;4.47;4.05;;;1.70;99.90;;;;;;5054517;28;20699;-51
2021/01/07 00:50:30;;;;;;;5.82;2.45;;;1.60;99.90;;;;;;5071091;28;20236;-51
2021/01/07 00:52:57;;;;;;;3.80;2.28;;;1.60;99.90;;;;;;5072425;28;20203;-55
2021/01/07 00:55:26;;;;;;;3.60;3.10;;;1.50;99.90;;;;;;5054709;28;20283;-51
2021/01/07 00:57:57;;;;;;;4.65;2.90;;;1.60;99.90;;;;;;5055322;28;20204;-53
2021/01/07 01:00:24;;;;;;;3.78;2.72;;;1.60;99.90;;;;;;5072813;28;20241;-48
2021/01/07 01:02:52;;;;;;;5.35;3.78;;;1.60;99.90;;;;;;5072423;28;20529;-50
2021/01/07 01:05:20;;;;;;;6.53;4.13;;;1.60;99.90;;;;;;5072116;28;20183;-48
2021/01/07 01:07:47;;;;;;;5.13;4.68;;;1.60;99.90;;;;;;5071947;28;20188;-55
2021/01/07 01:10:14;;;;;;;4.03;2.88;;;1.60;99.90;;;;;;5071775;28;20283;-54
2021/01/07 01:12:41;;;;;;;4.63;3.00;;;1.50;99.90;;;;;;5072177;28;20580;-49
2021/01/07 01:15:11;;;;;;;3.90;3.50;;;1.50;99.90;;;;;;5071766;28;20188;-51
2021/01/07 01:17:40;;;;;;;4.38;2.47;;;1.40;99.90;;;;;;5071809;28;20176;-52
2021/01/07 01:20:10;;;;;;;3.97;2.85;;;1.50;99.90;;;;;;5071429;28;20622;-53
2021/01/07 01:22:38;;;;;;;4.25;2.10;;;1.50;99.90;;;;;;5072103;28;20187;-53
2021/01/07 01:25:08;;;;;;;3.03;2.47;;;1.50;99.90;;;;;;5071924;28;20199;-52
2021/01/07 01:27:36;;;;;;;3.63;3.08;;;1.50;99.90;;;;;;5054547;28;20196;-50
2021/01/07 01:30:05;;;;;;;10.07;3.42;;;1.40;99.90;;;;;;5072602;28;20216;-54
2021/01/07 01:32:32;;;;;;;2.20;2.00;;;1.40;99.90;;;;;;5072386;28;20578;-51
2021/01/07 01:34:59;;;;;;;2.42;2.22;;;1.40;99.90;;;;;;5072393;28;20184;-51
2021/01/07 01:37:26;;;;;;;4.90;2.50;;;1.40;99.90;;;;;;5071589;28;20238;-47
2021/01/07 01:39:54;;;;;;;8.02;3.67;;;1.50;99.90;;;;;;5071303;28;20211;-53
2021/01/07 01:42:24;;;;;;;6.90;1.98;;;1.50;99.90;;;;;;5071346;28;20207;-54
2021/01/07 01:44:52;;;;;;;3.60;2.55;;;1.50;99.90;;;;;;5071692;28;20210;-52
2021/01/07 01:47:20;;;;;;;3.22;1.88;;;1.50;99.90;;;;;;5053622;28;20198;-54
2021/01/07 01:49:48;;;;;;;2.45;2.08;;;1.40;99.90;;;;;;5071740;28;20208;-50
2021/01/07 01:52:16;;;;;;;1.48;1.35;;;1.40;99.90;;;;;;5071548;28;20187;-51
2021/01/07 01:54:44;;;;;;;1.98;1.65;;;1.40;99.90;;;;;;5072247;28;20219;-51
2021/01/07 01:57:16;;;;;;;2.78;2.53;;;1.30;99.90;;;;;;5072388;28;20642;-51
2021/01/07 01:59:43;;;;;;;3.17;1.83;;;1.30;99.90;;;;;;5072641;28;20257;-54
2021/01/07 02:02:12;;;;;;;3.20;2.63;;;1.30;99.90;;;;;;5072072;28;20207;-55
2021/01/07 02:04:39;;;;;;;4.10;2.63;;;1.30;99.90;;;;;;5071946;28;20172;-53
2021/01/07 02:07:09;;;;;;;3.63;2.70;;;1.30;99.90;;;;;;5071942;28;20180;-51
2021/01/07 02:09:37;;;;;;;3.97;2.30;;;1.30;99.90;;;;;;5072238;28;20208;-54
2021/01/07 02:12:04;;;;;;;3.03;2.72;;;1.30;99.90;;;;;;5072447;28;20196;-55
2021/01/07 02:14:32;;;;;;;3.30;2.50;;;1.30;99.90;;;;;;5072108;28;20172;-56
2021/01/07 02:16:59;;;;;;;2.17;1.98;;;1.30;99.90;;;;;;5071899;28;20652;-54
2021/01/07 02:19:26;;;;;;;4.95;2.30;;;1.20;99.90;;;;;;5071949;28;20525;-57
2021/01/07 02:21:54;;;;;;;2.75;2.03;;;1.20;99.90;;;;;;5071691;28;20200;-48
2021/01/07 02:28:33;;;;;;;2.90;1.77;;;1.20;99.90;;;;;;5075934;28;20163;-50
2021/01/07 02:31:01;;;;;;;2.88;2.30;;;1.30;99.90;;;;;;5075965;28;20689;-50
2021/01/07 02:33:28;;;;;;;3.40;3.10;;;1.30;99.90;;;;;;5076365;28;20188;-47
2021/01/07 02:35:55;;;;;;;2.75;2.35;;;1.40;99.90;;;;;;5076249;28;20219;-51
2021/01/07 02:38:24;;;;;;;1.95;1.63;;;1.40;99.90;;;;;;5076319;28;20214;-50
2021/01/07 02:40:51;;;;;;;6.20;2.85;;;1.30;99.90;;;;;;5076020;28;20243;-53
2021/01/07 02:43:18;;;;;;;3.00;2.22;;;1.40;99.90;;;;;;5076370;28;20657;-54
2021/01/07 02:45:45;;;;;;;3.97;2.40;;;1.40;99.90;;;;;;5075577;28;20279;-54
2021/01/07 02:48:13;;;;;;;2.85;2.50;;;1.30;99.90;;;;;;5075980;28;20241;-54
2021/01/07 02:50:40;;;;;;;5.35;3.05;;;1.30;99.90;;;;;;5074562;28;20211;-52
2021/01/07 02:53:07;;;;;;;3.35;2.08;;;1.30;99.90;;;;;;5075333;28;20198;-54
2021/01/07 02:55:36;;;;;;;3.25;1.90;;;1.30;99.90;;;;;;5075905;28;20273;-52
2021/01/07 02:58:03;;;;;;;3.58;1.67;;;1.20;99.90;;;;;;5076204;28;20561;-53
2021/01/07 03:00:30;;;;;;;3.95;3.42;;;1.20;99.90;;;;;;5075883;28;20586;-54
2021/01/07 03:02:57;;;;;;;3.65;2.00;;;1.30;99.90;;;;;;5076202;28;20718;-51
2021/01/07 03:05:24;;;;;;;3.20;2.30;;;1.30;99.90;;;;;;5075264;28;20177;-54
2021/01/07 03:07:52;;;;;;;6.38;3.90;;;1.30;99.90;;;;;;5074972;28;20189;-52
2021/01/07 03:10:19;;;;;;;2.15;1.83;;;1.30;99.90;;;;;;5074415;28;20208;-53
2021/01/07 03:12:47;;;;;;;3.72;2.45;;;1.30;99.90;;;;;;5074769;28;20175;-52
2021/01/07 03:15:14;;;;;;;2.28;2.08;;;1.20;99.90;;;;;;5075637;28;20548;-54
2021/01/07 03:17:41;;;;;;;5.68;2.67;;;1.10;99.90;;;;;;5075273;28;20242;-54
2021/01/07 03:20:12;;;;;;;2.92;2.00;;;1.10;99.90;;;;;;5057106;28;20227;-53
2021/01/07 03:22:40;;;;;;;5.00;2.75;;;1.10;99.90;;;;;;5075246;28;20266;-55
2021/01/07 03:25:08;;;;;;;3.00;2.50;;;1.10;99.90;;;;;;5074446;28;20172;-57
2021/01/07 03:27:36;;;;;;;3.53;2.58;;;1.00;99.90;;;;;;5074990;28;20581;-53
2021/01/07 03:30:05;;;;;;;2.58;1.85;;;1.00;99.90;;;;;;5074528;28;20269;-55
2021/01/07 03:32:33;;;;;;;5.72;3.80;;;1.10;99.90;;;;;;5074686;28;20512;-51
2021/01/07 03:35:00;;;;;;;3.65;2.28;;;1.10;99.90;;;;;;5074713;28;20227;-56
2021/01/07 03:37:27;;;;;;;4.80;2.85;;;1.20;99.90;;;;;;5055371;28;20192;-50
2021/01/07 03:39:54;;;;;;;3.00;2.75;;;1.10;99.90;;;;;;5074984;28;20219;-51
2021/01/07 03:42:21;;;;;;;4.35;3.22;;;1.20;99.90;;;;;;5074625;28;20207;-57
2021/01/07 03:44:48;;;;;;;3.40;2.53;;;1.20;99.90;;;;;;5074002;28;20184;-50
2021/01/07 03:47:17;;;;;;;3.13;2.47;;;1.20;99.90;;;;;;5074735;28;20184;-57
2021/01/07 03:49:44;;;;;;;4.30;2.40;;;1.20;99.90;;;;;;5074908;28;20200;-53
2021/01/07 03:52:11;;;;;;;4.55;2.95;;;1.20;99.90;;;;;;5073851;28;20187;-53
2021/01/07 03:54:39;;;;;;;5.93;2.88;;;1.20;99.90;;;;;;5074128;28;20190;-51
2021/01/07 03:57:07;;;;;;;2.88;2.30;;;1.20;99.90;;;;;;5073630;28;20218;-52
2021/01/07 03:59:34;;;;;;;3.08;2.78;;;1.20;99.90;;;;;;5074091;28;20250;-54
2021/01/07 04:02:01;;;;;;;3.00;2.25;;;1.20;99.90;;;;;;5073776;28;20454;-53
2021/01/07 04:04:29;;;;;;;3.83;2.17;;;1.20;99.90;;;;;;5073702;28;20577;-54
2021/01/07 04:06:56;;;;;;;1.88;1.70;;;1.20;99.90;;;;;;5073576;28;20180;-54
2021/01/07 04:09:24;;;;;;;2.72;1.73;;;1.20;99.90;;;;;;5073307;28;20542;-55
2021/01/07 04:11:51;;;;;;;5.07;3.00;;;1.20;99.90;;;;;;5073550;28;20173;-55
2021/01/07 04:14:18;;;;;;;4.32;2.92;;;1.30;99.90;;;;;;5074365;28;20172;-53
2021/01/07 04:16:45;;;;;;;4.10;3.22;;;1.20;99.90;;;;;;5073470;28;20331;-53
2021/01/07 04:19:12;;;;;;;6.20;4.65;;;1.30;99.90;;;;;;5073526;28;20192;-55
2021/01/07 04:21:45;;;;;;;3.58;2.47;;;1.20;99.90;;;;;;5073392;28;20600;-54
2021/01/07 04:24:14;;;;;;;6.03;5.13;;;1.20;99.90;;;;;;5055288;28;20222;-55
2021/01/07 04:26:42;;;;;;;4.90;4.25;;;1.30;99.90;;;;;;5073398;28;20181;-52
2021/01/07 04:29:09;;;;;;;3.88;3.58;;;1.30;99.90;;;;;;5073620;28;20226;-52
2021/01/07 04:31:36;;;;;;;3.60;2.90;;;1.30;99.90;;;;;;5073756;28;20264;-55
2021/01/07 04:34:04;;;;;;;5.00;3.25;;;1.20;99.90;;;;;;5073311;28;20183;-51
2021/01/07 04:36:31;;;;;;;3.60;3.03;;;1.20;99.90;;;;;;5073317;28;20192;-51
2021/01/07 04:38:59;;;;;;;3.55;2.65;;;1.20;99.90;;;;;;5072869;28;20568;-51
2021/01/07 04:41:26;;;;;;;5.40;3.60;;;1.30;99.90;;;;;;5072335;28;20293;-54
2021/01/07 04:43:57;;;;;;;4.15;2.97;;;1.30;99.90;;;;;;5072480;28;20195;-51
2021/01/07 04:46:25;;;;;;;4.82;3.17;;;1.30;99.90;;;;;;5073005;28;20177;-52
2021/01/07 04:48:52;;;;;;;4.25;3.00;;;1.30;99.90;;;;;;5073027;28;20184;-51
2021/01/07 04:51:20;;;;;;;5.55;3.45;;;1.30;99.90;;;;;;5072681;28;20207;-51
2021/01/07 04:53:48;;;;;;;4.95;3.15;;;1.30;99.90;;;;;;5054564;28;20718;-52
2021/01/07 04:56:16;;;;;;;5.45;4.90;;;1.30;99.90;;;;;;5073120;28;20199;-48
2021/01/07 04:58:43;;;;;;;5.90;3.72;;;1.30;99.90;;;;;;5073359;28;20676;-50
2021/01/07 05:01:12;;;;;;;4.50;3.72;;;1.20;99.90;;;;;;5073136;28;20551;-51
2021/01/07 05:03:44;;;;;;;5.10;3.95;;;1.20;99.90;;;;;;5073455;28;20507;-50
2021/01/07 05:06:12;;;;;;;4.80;4.00;;;1.20;99.90;;;;;;5073109;28;20175;-55
2021/01/07 05:08:39;;;;;;;6.75;4.35;;;1.20;99.90;;;;;;5072279;28;20192;-49
2021/01/07 05:11:08;;;;;;;5.22;3.67;;;1.20;99.90;;;;;;5071845;28;20293;-53
2021/01/07 05:13:42;;;;;;;3.35;2.35;;;1.30;99.90;;;;;;5072018;28;20596;-52
2021/01/07 05:16:20;;;;;;;5.32;3.15;;;1.20;99.90;;;;;;5072054;28;20188;-53
2021/01/07 05:18:47;;;;;;;7.30;5.72;;;1.20;99.90;;;;;;5071792;28;20650;-55
2021/01/07 05:21:20;;;;;;;5.70;4.32;;;1.20;99.90;;;;;;5071602;28;20294;-50
2021/01/07 05:23:48;;;;;;;5.63;2.65;;;1.20;99.90;;;;;;5071781;28;20657;-54
2021/01/07 05:26:17;;;;;;;8.65;4.10;;;1.10;99.90;;;;;;5071542;28;20181;-55
2021/01/07 05:28:46;;;;;;;7.07;4.30;;;1.20;99.90;;;;;;5071840;28;20245;-49
2021/01/07 05:31:18;;;;;;;5.35;4.18;;;1.10;99.90;;;;;;5071842;28;20204;-51
2021/01/07 05:33:45;;;;;;;6.45;3.20;;;1.10;99.90;;;;;;5071775;28;20176;-55
2021/01/07 05:36:20;;;;;;;5.63;3.92;;;1.20;99.90;;;;;;5071743;28;20271;-52
2021/01/07 05:38:48;;;;;;;4.07;2.70;;;1.20;99.90;;;;;;5071713;28;20188;-52
2021/01/07 05:41:16;;;;;;;8.52;4.95;;;1.20;99.90;;;;;;5071579;28;20443;-51
2021/01/07 05:43:44;;;;;;;5.88;3.95;;;1.20;99.90;;;;;;5071514;28;20202;-52
2021/01/07 05:46:12;;;;;;;4.80;2.85;;;1.20;99.90;;;;;;5071712;28;20230;-54
2021/01/07 05:48:39;;;;;;;6.20;3.53;;;1.30;99.90;;;;;;5071816;28;20176;-55
2021/01/07 05:51:07;;;;;;;7.38;3.38;;;1.20;99.90;;;;;;5071853;28;20238;-50
2021/01/07 05:53:34;;;;;;;6.72;4.28;;;1.20;99.90;;;;;;5071563;28;20208;-51
2021/01/07 05:56:02;;;;;;;8.10;4.68;;;1.20;99.90;;;;;;5071587;28;20211;-49
2021/01/07 05:58:32;;;;;;;3.63;2.25;;;1.20;99.90;;;;;;5071629;28;20179;-52
2021/01/07 06:01:02;;;;;;;6.47;4.25;;;1.20;99.90;;;;;;5070657;28;20273;-53
2021/01/07 06:03:34;;;;;;;6.63;5.35;;;1.20;99.90;;;;;;5071355;28;20173;-55
2021/01/07 06:06:02;;;;;;;5.53;3.00;;;1.20;99.90;;;;;;5071278;28;20629;-50
2021/01/07 06:08:31;;;;;;;4.43;3.90;;;1.20;99.90;;;;;;5071480;28;20246;-51
2021/01/07 06:10:58;;;;;;;5.90;3.25;;;1.20;99.90;;;;;;5071264;28;20211;-57
2021/01/07 06:13:26;;;;;;;5.70;3.95;;;1.30;99.90;;;;;;5071290;28;20176;-52
2021/01/07 06:15:53;;;;;;;4.75;3.33;;;1.20;99.90;;;;;;5070090;28;20176;-54
2021/01/07 06:18:24;;;;;;;6.50;3.15;;;1.30;99.90;;;;;;5082215;28;20794;-57
2021/01/07 06:21:02;;;;;;;8.55;5.47;;;1.20;99.90;;;;;;5091102;28;20217;-52
2021/01/07 06:23:31;;;;;;;6.30;4.07;;;1.20;99.90;;;;;;5091101;28;20269;-52
2021/01/07 06:26:24;;;;;;;4.35;2.60;;;1.20;99.90;;;;;;5091419;28;20244;-49
2021/01/07 06:28:53;;;;;;;5.57;3.17;;;1.30;99.90;;;;;;5083728;28;20199;-56
2021/01/07 06:31:21;;;;;;;8.02;6.03;;;1.30;99.90;;;;;;5070851;28;20207;-55
2021/01/07 06:33:50;;;;;;;8.77;4.18;;;1.30;99.90;;;;;;5070780;28;20195;-52
2021/01/07 06:36:18;;;;;;;10.55;4.80;;;1.30;99.90;;;;;;5069878;28;20184;-54
2021/01/07 06:38:50;;;;;;;6.43;4.18;;;1.20;99.90;;;;;;5070797;28;20245;-55
2021/01/07 06:41:23;;;;;;;4.30;3.03;;;1.20;99.90;;;;;;5070518;28;20233;-54
2021/01/07 06:43:51;;;;;;;7.88;4.10;;;1.20;99.90;;;;;;5052715;28;20188;-51
2021/01/07 06:46:39;;;;;;;6.13;4.30;;;1.20;99.90;;;;;;5051016;28;20212;-54
2021/01/07 06:49:18;;;;;;;9.23;3.97;;;1.20;99.90;;;;;;5050793;28;20200;-54
2021/01/07 06:51:52;;;;;;;7.22;4.43;;;1.10;99.90;;;;;;5050945;28;20187;-54
2021/01/07 06:54:20;;;;;;;4.65;3.40;;;1.20;99.90;;;;;;5050925;28;20177;-51
2021/01/07 06:56:52;;;;;;;3.40;2.75;;;1.20;99.90;;;;;;5051734;28;20188;-51
2021/01/07 06:59:21;;;;;;;3.45;2.88;;;1.20;99.90;;;;;;5051418;28;20188;-54
2021/01/07 07:01:51;;;;;;;9.52;6.10;;;1.20;99.90;;;;;;5050984;28;20615;-48
2021/01/07 07:04:26;;;;;;;5.32;3.97;;;1.20;99.90;;;;;;5046205;28;20192;-50
2021/01/07 07:07:08;;;;;;;6.15;4.25;;;1.30;99.90;;;;;;5070758;28;20547;-54
2021/01/07 07:09:41;;;;;;;8.77;6.40;;;1.30;99.90;;;;;;5070675;28;20208;-53
2021/01/07 07:12:09;;;;;;;7.38;4.63;;;1.30;99.90;;;;;;5073162;28;20634;-55
2021/01/07 07:14:40;;;;;;;5.38;3.92;;;1.30;99.90;;;;;;5074916;28;20734;-53
2021/01/07 07:17:09;;;;;;;7.57;4.90;;;1.30;99.90;;;;;;5074772;28;20195;-55
2021/01/07 07:19:38;;;;;;;6.40;3.45;;;1.30;99.90;;;;;;5074021;28;20215;-51
2021/01/07 07:22:09;;;;;;;6.55;3.67;;;1.30;99.90;;;;;;5074303;28;20279;-54
2021/01/07 07:24:49;;;;;;;11.05;4.82;;;1.30;99.90;;;;;;5074376;28;20211;-50
2021/01/07 07:27:19;;;;;;;4.28;3.85;;;1.30;99.90;;;;;;5073048;28;20286;-52
2021/01/07 07:29:49;;;;;;;4.80;4.00;;;1.30;99.90;;;;;;5074067;28;20214;-54
2021/01/07 07:32:24;;;;;;;5.28;4.88;;;1.30;99.90;;;;;;5074814;28;20556;-52
2021/01/07 07:34:52;;;;;;;4.97;3.63;;;1.30;99.90;;;;;;5074637;28;20211;-50
2021/01/07 07:37:21;;;;;;;6.70;4.10;;;1.30;99.90;;;;;;5074387;28;20601;-52
2021/01/07 07:39:50;;;;;;;5.53;3.80;;;1.30;99.90;;;;;;5073815;28;20220;-55
2021/01/07 07:42:17;;;;;;;9.85;4.97;;;1.50;99.90;;;;;;5073650;28;20215;-50
2021/01/07 07:44:44;;;;;;;6.80;4.28;;;1.40;99.90;;;;;;5073982;28;20181;-55
2021/01/07 07:47:11;;;;;;;11.98;4.70;;;1.40;99.90;;;;;;5073965;28;20249;-50
2021/01/07 07:49:39;;;;;;;5.35;4.25;;;1.40;99.90;;;;;;5073724;28;20219;-57
2021/01/07 07:52:06;;;;;;;3.47;3.15;;;1.40;99.90;;;;;;5073989;28;20173;-53
2021/01/07 07:54:35;;;;;;;4.63;2.50;;;1.40;99.90;;;;;;5073601;28;20176;-54
2021/01/07 07:57:02;;;;;;;6.10;5.05;;;1.30;99.90;;;;;;5073824;28;20176;-54
2021/01/07 07:59:33;;;;;;;6.82;4.75;;;1.30;99.90;;;;;;5073720;28;20215;-55
2021/01/07 08:02:00;;;;;;;8.20;3.42;;;1.30;99.90;;;;;;5073439;28;20283;-50
2021/01/07 08:04:28;;;;;;;4.60;3.25;;;1.40;99.90;;;;;;5073718;28;20208;-48
2021/01/07 08:06:55;;;;;;;6.55;2.83;;;1.40;99.90;;;;;;5073586;28;20184;-54
2021/01/07 08:09:22;;;;;;;11.25;5.45;;;1.40;99.90;;;;;;5073651;28;20344;-51
2021/01/07 08:11:52;;;;;;;6.20;2.42;;;1.40;99.90;;;;;;5073660;28;20222;-53
2021/01/07 08:14:21;;;;;;;9.52;5.30;;;1.30;99.90;;;;;;5073614;28;20230;-50
2021/01/07 08:16:54;;;;;;;4.18;3.28;;;1.40;99.90;;;;;;5073328;28;20215;-52
2021/01/07 08:19:23;;;;;;;5.28;3.65;;;1.50;99.90;;;;;;5073295;28;20184;-54
2021/01/07 08:21:52;;;;;;;6.13;4.57;;;1.50;99.90;;;;;;5073993;28;20285;-51
2021/01/07 08:24:22;;;;;;;5.90;4.20;;;1.60;99.90;;;;;;5072766;28;20192;-55
2021/01/07 08:27:18;;;;;;;4.40;2.65;;;1.50;99.90;;;;;;5073399;28;20183;-55
2021/01/07 08:29:50;;;;;;;6.97;4.10;;;1.40;99.90;;;;;;5059989;28;20224;-50
2021/01/07 08:32:19;;;;;;;7.43;5.13;;;1.50;99.90;;;;;;5072861;28;20216;-53
2021/01/07 08:34:47;;;;;;;8.90;4.75;;;1.40;99.90;;;;;;5073851;28;20169;-54
2021/01/07 08:37:17;;;;;;;3.65;2.42;;;1.50;99.90;;;;;;5072982;28;20580;-50
2021/01/07 08:39:44;;;;;;;10.57;4.35;;;1.50;99.90;;;;;;5073266;28;20223;-52
2021/01/07 08:42:14;;;;;;;7.22;5.20;;;1.50;99.90;;;;;;5072981;28;20200;-55
2021/01/07 08:44:44;;;;;;;4.60;3.75;;;1.60;99.90;;;;;;5072547;28;20349;-51
2021/01/07 08:47:22;;;;;;;8.70;4.57;;;1.60;99.90;;;;;;5073027;28;20200;-49
2021/01/07 08:50:08;;;;;;;8.10;5.72;;;1.60;99.90;;;;;;5072921;28;20211;-51
2021/01/07 08:52:49;;;;;;;7.85;4.70;;;1.60;99.90;;;;;;5072502;28;20606;-54
2021/01/07 08:55:16;;;;;;;5.10;4.15;;;1.70;99.90;;;;;;5073004;28;20230;-51
2021/01/07 08:57:43;;;;;;;5.65;4.18;;;1.80;99.90;;;;;;5072482;28;20200;-55
2021/01/07 09:00:19;;;;;;;5.03;3.47;;;1.80;99.90;;;;;;5072704;28;20226;-52
2021/01/07 09:03:01;;;;;;;4.60;3.80;;;1.80;99.90;;;;;;5054832;28;20235;-55
2021/01/07 09:05:29;;;;;;;6.65;3.80;;;1.80;99.90;;;;;;5072548;28;20187;-49
2021/01/07 09:08:05;;;;;;;4.35;3.50;;;1.80;99.90;;;;;;5072371;28;20183;-53
2021/01/07 09:10:33;;;;;;;5.50;3.03;;;1.80;99.90;;;;;;5071872;28;20218;-51
2021/01/07 09:13:00;;;;;;;4.50;4.10;;;1.90;99.90;;;;;;5056561;28;20184;-55
2021/01/07 09:15:28;;;;;;;5.70;3.85;;;1.80;99.90;;;;;;5053574;28;20232;-49
2021/01/07 09:17:56;;;;;;;4.05;3.13;;;1.80;99.90;;;;;;5071124;28;20540;-50
2021/01/07 09:20:29;;;;;;;6.75;3.45;;;1.80;99.90;;;;;;5072339;28;20814;-53
2021/01/07 09:23:03;;;;;;;4.70;3.53;;;1.70;99.90;;;;;;5071934;28;20717;-50
2021/01/07 09:25:30;;;;;;;7.57;3.53;;;1.60;99.90;;;;;;5072704;28;20204;-53
2021/01/07 09:27:59;;;;;;;5.28;4.80;;;1.60;99.90;;;;;;5073063;28;20184;-48
2021/01/07 09:30:27;;;;;;;5.00;3.50;;;1.70;99.90;;;;;;5072631;28;20208;-50
2021/01/07 09:32:56;;;;;;;5.13;4.63;;;1.80;99.90;;;;;;5072565;28;20180;-53
2021/01/07 09:35:24;;;;;;;5.05;2.45;;;1.70;99.90;;;;;;5072203;28;20188;-53
2021/01/07 09:38:00;;;;;;;3.17;2.88;;;1.80;99.90;;;;;;5071949;28;20183;-53
2021/01/07 09:40:27;;;;;;;4.10;2.50;;;1.70;99.90;;;;;;5072445;28;20607;-53
2021/01/07 09:42:55;;;;;;;5.18;3.20;;;1.70;99.90;;;;;;5072859;28;20271;-54
2021/01/07 09:45:22;;;;;;;7.50;3.78;;;1.70;99.90;;;;;;5072833;28;20577;-50
2021/01/07 09:47:49;;;;;;;5.32;3.30;;;1.80;99.90;;;;;;5072574;28;20180;-52
2021/01/07 09:50:20;;;;;;;7.47;4.00;;;1.80;99.90;;;;;;5072872;28;20814;-54
2021/01/07 09:52:47;;;;;;;4.15;3.08;;;1.80;99.90;;;;;;5072677;28;20175;-52
2021/01/07 09:55:14;;;;;;;5.47;2.33;;;1.80;99.90;;;;;;5072122;28;20180;-54
2021/01/07 09:57:46;;;;;;;7.13;4.55;;;1.80;99.90;;;;;;5072353;28;20196;-55
2021/01/07 10:00:15;;;;;;;2.40;2.20;;;1.80;99.90;;;;;;5072687;28;20226;-54
2021/01/07 10:02:42;;;;;;;4.85;2.10;;;1.80;99.90;;;;;;5072492;28;20208;-52
2021/01/07 10:05:11;;;;;;;5.53;3.05;;;1.80;99.90;;;;;;5072844;28;20187;-53
2021/01/07 10:07:39;;;;;;;4.13;2.03;;;1.80;99.90;;;;;;5071048;28;20192;-53
2021/01/07 10:10:07;;;;;;;2.00;1.40;;;1.80;99.90;;;;;;5072302;28;20211;-54
2021/01/07 10:12:34;;;;;;;3.15;2.78;;;1.90;99.90;;;;;;5072337;28;20173;-53
2021/01/07 10:15:02;;;;;;;5.13;3.67;;;1.90;99.90;;;;;;5072260;28;20188;-53
2021/01/07 10:17:29;;;;;;;3.58;3.25;;;1.90;99.90;;;;;;5072102;28;20544;-53
2021/01/07 10:19:56;;;;;;;6.43;3.53;;;1.90;99.90;;;;;;5072381;28;20203;-54
2021/01/07 10:22:25;;;;;;;4.43;2.78;;;1.90;99.90;;;;;;5072314;28;20203;-56
2021/01/07 10:24:55;;;;;;;5.03;2.30;;;1.90;99.90;;;;;;5072569;28;20185;-56
2021/01/07 10:27:23;;;;;;;5.30;2.70;;;2.00;99.90;;;;;;5072430;28;20183;-54
2021/01/07 10:29:50;;;;;;;8.48;3.63;;;2.10;99.90;;;;;;5072747;28;20329;-53
2021/01/07 10:32:19;;;;;;;3.88;2.05;;;2.10;99.90;;;;;;5071829;28;20233;-55
2021/01/07 10:34:47;;;;;;;6.20;4.45;;;2.10;99.90;;;;;;5072360;28;20634;-59
2021/01/07 10:37:18;;;;;;;3.38;2.17;;;2.20;99.90;;;;;;5055250;28;20195;-56
2021/01/07 10:39:48;;;;;;;5.07;2.55;;;2.20;99.90;;;;;;5072191;28;20227;-56
2021/01/07 10:42:17;;;;;;;3.38;3.08;;;2.10;99.90;;;;;;5072671;28;20552;-58
2021/01/07 10:44:46;;;;;;;7.18;3.15;;;2.10;99.90;;;;;;5072374;28;20172;-51
2021/01/07 10:47:15;;;;;;;3.53;2.22;;;2.10;99.90;;;;;;5074149;28;20168;-53
2021/01/07 10:49:43;;;;;;;2.75;1.73;;;2.10;99.90;;;;;;5075803;28;20211;-55
2021/01/07 10:52:33;;;;;;;5.50;1.70;;;2.10;99.90;;;;;;5075620;28;20270;-56
2021/01/07 10:55:17;;;;;;;4.35;3.50;;;2.20;99.90;;;;;;5075469;28;20275;-50
2021/01/07 10:58:28;;;;;;;3.85;1.92;;;2.10;99.90;;;;;;5075856;28;20173;-52
2021/01/07 11:01:06;;;;;;;4.20;2.45;;;2.00;99.90;;;;;;5075532;28;20220;-51
2021/01/07 11:04:03;;;;;;;2.70;1.95;;;2.00;99.90;;;;;;5075256;28;20561;-49
2021/01/07 11:06:32;;;;;;;2.17;1.73;;;2.00;99.90;;;;;;5074990;28;20287;-49
2021/01/07 11:09:03;;;;;;;1.70;1.27;;;2.00;99.90;;;;;;5057339;28;20647;-51
2021/01/07 11:11:36;;;;;;;2.80;2.30;;;2.00;99.90;;;;;;5075340;28;20595;-54
2021/01/07 11:14:28;;;;;;;3.38;2.40;;;2.10;99.90;;;;;;5075204;28;20270;-49
2021/01/07 11:17:01;;;;;;;2.58;2.25;;;2.10;99.90;;;;;;5075059;28;20175;-50
2021/01/07 11:19:31;;;;;;;5.25;3.65;;;2.10;99.90;;;;;;5074899;28;20183;-50
2021/01/07 11:22:02;;;;;;;2.13;1.92;;;2.10;99.90;;;;;;5074786;28;20215;-51
2021/01/07 11:24:30;;;;;;;2.92;2.42;;;2.10;99.90;;;;;;5075047;28;20181;-55
2021/01/07 11:26:58;;;;;;;4.60;2.83;;;2.20;99.90;;;;;;5075186;28;20191;-52
2021/01/07 11:29:27;;;;;;;5.18;2.30;;;2.20;99.90;;;;;;5074853;28;20210;-50
2021/01/07 11:31:54;;;;;;;2.45;2.10;;;2.20;99.90;;;;;;5056536;28;20237;-50
2021/01/07 11:34:22;;;;;;;4.85;2.50;;;2.20;99.90;;;;;;5075233;28;20540;-54
2021/01/07 11:36:54;;;;;;;3.40;2.45;;;2.20;99.90;;;;;;5074928;28;20187;-52
2021/01/07 11:39:25;;;;;;;4.15;3.25;;;2.20;99.90;;;;;;5075283;28;20191;-51
2021/01/07 11:42:03;;;;;;;2.40;1.88;;;2.10;99.90;;;;;;5074763;28;20180;-52
2021/01/07 11:44:42;;;;;;;2.42;1.77;;;2.10;99.90;;;;;;5075012;28;20706;-50
2021/01/07 11:47:11;;;;;;;5.03;2.20;;;2.20;99.90;;;;;;5074470;28;20176;-52
2021/01/07 11:49:41;;;;;;;3.33;1.92;;;2.20;99.90;;;;;;5074585;28;20684;-51
2021/01/07 11:52:09;;;;;;;3.80;1.95;;;2.20;99.90;;;;;;5074165;28;20168;-52
2021/01/07 11:54:39;;;;;;;1.80;1.50;;;2.20;99.90;;;;;;5074189;28;20184;-53
2021/01/07 11:57:07;;;;;;;2.13;1.42;;;2.30;99.90;;;;;;5073971;28;20716;-50
2021/01/07 11:59:39;;;;;;;2.90;2.30;;;2.20;99.90;;;;;;5074003;28;20204;-53
2021/01/07 12:02:09;;;;;;;10.77;5.80;;;2.20;99.90;;;;;;5073806;28;20299;-51
2021/01/07 12:04:37;;;;;;;4.05;3.60;;;2.20;99.90;;;;;;5074184;28;20215;-52
2021/01/07 12:07:13;;;;;;;5.32;2.63;;;2.20;99.90;;;;;;5056517;28;20194;-51
2021/01/07 12:09:43;;;;;;;3.40;2.60;;;2.20;99.90;;;;;;5073747;28;20208;-54
2021/01/07 12:12:15;;;;;;;6.18;3.60;;;2.20;99.90;;;;;;5073958;28;20169;-51
2021/01/07 12:14:49;;;;;;;4.28;3.40;;;2.20;99.90;;;;;;5073921;28;20177;-53
2021/01/07 12:17:17;;;;;;;3.35;2.72;;;2.20;99.90;;;;;;5074445;28;20648;-51
2021/01/07 12:19:45;;;;;;;3.17;2.95;;;2.20;99.90;;;;;;5074213;28;20219;-54
2021/01/07 12:22:14;;;;;;;4.85;3.45;;;2.20;99.90;;;;;;5074056;28;20200;-52
2021/01/07 12:25:01;;;;;;;3.53;3.10;;;2.30;99.90;;;;;;5074228;28;20253;-52
2021/01/07 12:27:29;;;;;;;6.57;4.05;;;2.30;99.90;;;;;;5073909;28;20177;-58
2021/01/07 12:29:58;;;;;;;4.97;4.28;;;2.20;99.90;;;;;;5072894;28;20681;-54
2021/01/07 12:32:29;;;;;;;4.47;2.80;;;2.20;99.90;;;;;;5074226;28;20183;-53
2021/01/07 12:35:06;;;;;;;6.05;4.10;;;2.20;99.90;;;;;;5074186;28;20176;-54
2021/01/07 12:37:54;;;;;;;3.03;2.00;;;2.20;99.90;;;;;;5074197;28;20180;-57
2021/01/07 12:40:25;;;;;;;3.78;3.38;;;2.20;99.90;;;;;;5073593;28;20223;-54
2021/01/07 12:43:02;;;;;;;7.25;4.93;;;2.10;99.90;;;;;;5073991;28;20545;-50
2021/01/07 12:45:33;;;;;;;7.57;3.65;;;2.00;99.90;;;;;;5073864;28;20183;-51
2021/01/07 12:48:03;;;;;;;7.63;3.45;;;2.00;99.90;;;;;;5073563;28;20188;-53
2021/01/07 12:50:31;;;;;;;6.47;4.03;;;2.00;99.90;;;;;;5073353;28;20208;-53
2021/01/07 12:53:00;;;;;;;5.45;3.75;;;2.00;99.90;;;;;;5073720;28;20695;-56
2021/01/07 12:55:27;;;;;;;6.55;3.78;;;2.00;99.90;;;;;;5072054;28;20188;-55
2021/01/07 12:58:09;;;;;;;6.93;5.65;;;2.00;99.90;;;;;;5073307;28;20423;-51
2021/01/07 13:00:44;;;;;;;6.63;5.85;;;2.00;99.90;;;;;;5073501;28;20721;-53
2021/01/07 13:03:22;;;;;;;4.78;2.75;;;2.00;99.90;;;;;;5073100;28;20221;-55
2021/01/07 13:05:53;;;;;;;6.97;4.38;;;2.10;99.90;;;;;;5073362;28;20177;-57
2021/01/07 13:08:21;;;;;;;4.30;3.50;;;2.10;99.90;;;;;;5073550;28;20168;-56
2021/01/07 13:10:49;;;;;;;9.98;4.63;;;2.10;99.90;;;;;;5073229;28;20273;-54
2021/01/07 13:13:23;;;;;;;4.38;2.53;;;2.20;99.90;;;;;;5073508;28;20233;-55
2021/01/07 13:15:51;;;;;;;4.50;3.58;;;2.20;99.90;;;;;;5073329;28;20196;-55